Accueil
METAR-TAF:

METAR-TAF

Aéroports :

Aéroport de Kerry

Killarney, Irlande

latitude: 52-10-51N, longitude: 9-31-26W, altitude: 34 m

Observation

Le bulletin a été fait il y a 4 heures et 25 minutes, à 17:30 UTC
Vent 2 kt de direction variable
Température 7°C
Humidité 70%
Pression 1038 hPa
Visibilité 10 km ou plus
Nuages fragmentés à une hauteur de 3600 ft

METAR: EIKY 261730Z VRB02KT 9999 BKN036 07/02 Q1038

Heure: 21:55 (21:55 UTC)

Prévision

Le bulletin a été fait il y a 4 heures et 55 minutes, à 17:00 UTC
Prévision valable du 26 à 18 UTC au 27 à 03 UTC
Vent 3 kt de direction variable
Visibilité 10 km ou plus
Nuages fragmentés à une hauteur de 4000 ft
Probabilité 30% :
Temporairement
du 27 à 00 UTC au 27 à 03 UTC
Visibilité: 0400 m
Nuages fragmentés à une hauteur de 100 ft
brouillard

TAF: EIKY 261700Z 2618/2703 VRB03KT 9999 BKN040 PROB30 TEMPO 2700/2703 0400 FG BKN001

Observations et prévisions météorologiques de plus de 4000 aéroports (messages METAR et TAF).

Les stations disponibles sont représentées par des disques jaunes et rouges sur la carte.

Passer la souris dessus pour voir le nom de la station.

Cliquer dessus pour voir les observations et prévisions météorologiques.

Pour changer de carte: cliquez sur les boutons verts avec une croix noire pour zoomer, sur le bouton vert avec un tiret pour effectuer un zoom arrière, ou sur les flèches vertes pour les cartes adjacentes.


METAR-TAF: